Time;durP1;ratioP1;P1;durP2;ratioP2;P2;SDS_P1;SDS_P2;PMS_P1;PMS_P2;Temp;Humidity;BMP_temperature;BMP_pressure;BME280_temperature;BME280_humidity;BME280_pressure;Samples;Min_cycle;Max_cycle;Signal;HPM_P1;HPM_P2
2024/04/13 00:01:51;;;;;;;10.07;7.83;;;10.30;99.90;;;;;;5487415;26;20609;-79
2024/04/13 00:04:19;;;;;;;9.03;7.10;;;10.30;99.90;;;;;;5462755;26;20288;-80
2024/04/13 00:06:45;;;;;;;8.77;5.50;;;10.30;99.90;;;;;;5484942;26;20744;-79
2024/04/13 00:09:14;;;;;;;11.17;6.80;;;10.30;99.90;;;;;;5487663;26;20247;-79
2024/04/13 00:11:40;;;;;;;8.90;5.80;;;10.30;99.90;;;;;;5490099;26;20236;-79
2024/04/13 00:14:08;;;;;;;9.07;6.27;;;10.30;99.90;;;;;;5487649;26;20273;-79
2024/04/13 00:16:38;;;;;;;10.47;6.60;;;10.20;99.90;;;;;;5473988;26;20238;-79
2024/04/13 00:19:06;;;;;;;7.57;5.60;;;10.30;99.90;;;;;;5489443;26;20265;-80
2024/04/13 00:21:32;;;;;;;7.50;5.50;;;10.30;99.90;;;;;;5473783;26;20308;-79
2024/04/13 00:24:01;;;;;;;7.20;5.50;;;10.20;99.90;;;;;;5517510;25;20244;-79
2024/04/13 00:26:27;;;;;;;6.70;5.17;;;10.20;99.90;;;;;;5490091;26;20231;-79
2024/04/13 00:28:55;;;;;;;11.03;6.00;;;10.20;99.90;;;;;;5488619;26;20338;-80
2024/04/13 00:31:21;;;;;;;6.87;5.60;;;10.20;99.90;;;;;;5502847;26;20244;-80
2024/04/13 00:33:53;;;;;;;8.50;5.70;;;10.20;99.90;;;;;;5484205;26;20577;-79
2024/04/13 00:36:18;;;;;;;9.70;5.73;;;10.10;99.90;;;;;;5488297;26;20236;-80
2024/04/13 00:38:47;;;;;;;9.17;6.03;;;10.10;99.90;;;;;;5489492;26;20283;-80
2024/04/13 00:41:13;;;;;;;7.33;5.67;;;10.00;99.90;;;;;;5489683;26;20295;-79
2024/04/13 00:43:41;;;;;;;8.47;5.67;;;9.90;99.90;;;;;;5489471;26;20235;-79
2024/04/13 00:46:08;;;;;;;9.03;6.00;;;9.80;99.90;;;;;;5488687;26;20286;-79
2024/04/13 00:48:37;;;;;;;9.27;7.43;;;9.70;99.90;;;;;;5488882;26;20746;-79
2024/04/13 00:51:06;;;;;;;11.03;9.93;;;9.70;99.90;;;;;;5489341;26;20321;-79
2024/04/13 00:53:36;;;;;;;11.27;10.17;;;9.70;99.90;;;;;;5476804;26;20244;-79
2024/04/13 00:56:06;;;;;;;11.10;9.93;;;9.60;99.90;;;;;;5495944;26;20278;-79
2024/04/13 00:58:35;;;;;;;9.97;9.07;;;9.50;99.90;;;;;;5488139;26;20734;-79
2024/04/13 01:01:03;;;;;;;9.80;9.00;;;9.60;99.90;;;;;;5480155;26;20262;-79
2024/04/13 01:03:35;;;;;;;11.50;10.20;;;9.50;99.90;;;;;;5489607;26;20338;-79
2024/04/13 01:06:01;;;;;;;10.27;8.90;;;9.40;99.90;;;;;;5486556;26;20243;-79
2024/04/13 01:08:34;;;;;;;11.77;10.20;;;9.40;99.90;;;;;;5499964;26;20338;-79
2024/04/13 01:11:00;;;;;;;10.10;9.20;;;9.40;99.90;;;;;;5490556;25;20721;-79
2024/04/13 01:13:29;;;;;;;9.40;8.60;;;9.30;99.90;;;;;;5486434;26;20243;-79
2024/04/13 01:15:55;;;;;;;10.87;9.70;;;9.30;99.90;;;;;;5500049;26;20273;-79
2024/04/13 01:18:23;;;;;;;10.17;9.23;;;9.30;99.90;;;;;;5486536;26;20243;-79
2024/04/13 01:20:49;;;;;;;13.67;10.10;;;9.30;99.90;;;;;;5473062;26;20781;-78
2024/04/13 01:23:18;;;;;;;10.57;9.60;;;9.40;99.90;;;;;;5489244;26;20713;-79
2024/04/13 01:25:47;;;;;;;10.53;9.63;;;9.40;99.90;;;;;;5501280;26;20247;-79
2024/04/13 01:28:17;;;;;;;9.60;8.73;;;9.40;99.90;;;;;;5487687;26;20230;-80
2024/04/13 01:30:44;;;;;;;9.43;7.43;;;9.40;99.90;;;;;;5503733;26;20230;-80
2024/04/13 01:33:13;;;;;;;9.83;8.83;;;9.40;99.90;;;;;;5491249;26;20283;-80
2024/04/13 01:35:39;;;;;;;7.97;6.07;;;9.50;99.90;;;;;;5481355;26;20265;-79
2024/04/13 01:38:09;;;;;;;7.83;6.37;;;9.50;99.90;;;;;;5500532;26;20299;-80
2024/04/13 01:40:34;;;;;;;9.97;6.23;;;9.60;99.90;;;;;;5478594;26;20246;-80
2024/04/13 01:43:06;;;;;;;7.90;6.47;;;9.50;99.90;;;;;;5494190;26;20273;-80
2024/04/13 01:45:32;;;;;;;9.20;8.40;;;9.60;99.90;;;;;;5500192;26;20617;-79
2024/04/13 01:48:00;;;;;;;8.70;7.70;;;9.50;99.90;;;;;;5503220;26;20329;-80
2024/04/13 01:50:26;;;;;;;11.43;10.33;;;9.50;99.90;;;;;;5488228;26;20666;-80
2024/04/13 01:52:54;;;;;;;12.17;10.40;;;9.50;99.90;;;;;;5457273;26;20738;-80
2024/04/13 01:55:21;;;;;;;11.33;10.33;;;9.50;99.90;;;;;;5488072;26;21082;-80
2024/04/13 01:57:50;;;;;;;13.07;11.77;;;9.40;99.90;;;;;;5500656;26;20323;-80
2024/04/13 02:00:18;;;;;;;11.33;10.23;;;9.50;99.90;;;;;;5488306;26;20338;-80
2024/04/13 02:02:47;;;;;;;11.33;10.33;;;9.40;99.90;;;;;;5465525;26;20237;-81
2024/04/13 02:05:13;;;;;;;12.27;11.07;;;9.40;99.90;;;;;;5470160;26;20314;-80
2024/04/13 02:07:41;;;;;;;11.17;10.17;;;9.40;99.90;;;;;;5502766;26;20231;-80
2024/04/13 02:10:07;;;;;;;11.03;10.07;;;9.40;99.90;;;;;;5503203;26;20281;-80
2024/04/13 02:12:36;;;;;;;11.67;9.77;;;9.40;99.90;;;;;;5494920;26;20245;-80
2024/04/13 02:15:02;;;;;;;10.37;9.33;;;9.40;99.90;;;;;;5516644;25;20277;-81
2024/04/13 02:17:33;;;;;;;10.17;9.27;;;9.40;99.90;;;;;;5490631;25;20241;-80
2024/04/13 02:19:59;;;;;;;9.93;9.03;;;9.40;99.90;;;;;;5486377;26;20329;-80
2024/04/13 02:22:32;;;;;;;10.07;8.90;;;9.40;99.90;;;;;;5488584;26;20277;-80
2024/04/13 02:24:58;;;;;;;9.47;8.67;;;9.30;99.90;;;;;;5486011;26;20297;-80
2024/04/13 02:27:27;;;;;;;10.27;9.37;;;9.30;99.90;;;;;;5486628;26;21076;-79
2024/04/13 02:29:53;;;;;;;10.10;9.20;;;9.30;99.90;;;;;;5485555;26;20239;-79
2024/04/13 02:32:22;;;;;;;7.43;6.50;;;9.30;99.90;;;;;;5513245;25;20351;-80
2024/04/13 02:34:50;;;;;;;7.27;6.30;;;9.20;99.90;;;;;;5487989;26;22003;-80
2024/04/13 02:37:19;;;;;;;8.60;6.80;;;9.10;99.90;;;;;;5470450;26;20329;-80
2024/04/13 02:39:45;;;;;;;5.90;5.30;;;9.10;99.90;;;;;;5487258;26;20235;-80
2024/04/13 02:42:13;;;;;;;5.70;5.10;;;9.00;99.90;;;;;;5487481;26;20588;-80
2024/04/13 02:44:39;;;;;;;6.50;5.80;;;9.00;99.90;;;;;;5487609;26;20231;-80
2024/04/13 02:47:08;;;;;;;8.67;6.67;;;9.00;99.90;;;;;;5484993;26;20254;-80
2024/04/13 02:49:34;;;;;;;8.53;6.20;;;9.00;99.90;;;;;;5498327;26;20230;-80
2024/04/13 02:52:05;;;;;;;7.00;5.83;;;9.10;99.90;;;;;;5491413;25;20341;-82
2024/04/13 02:54:31;;;;;;;9.63;6.33;;;9.10;99.90;;;;;;5487706;26;20277;-78
2024/04/13 02:57:00;;;;;;;9.43;6.10;;;9.10;99.90;;;;;;5484190;26;20238;-79
2024/04/13 02:59:28;;;;;;;9.37;6.90;;;9.10;99.90;;;;;;5487415;26;20286;-80
2024/04/13 03:01:57;;;;;;;9.20;6.60;;;9.10;99.90;;;;;;5487770;26;20238;-81
2024/04/13 03:04:25;;;;;;;9.27;7.10;;;9.00;99.90;;;;;;5487774;26;20290;-79
2024/04/13 03:06:51;;;;;;;10.70;9.73;;;8.90;99.90;;;;;;5487624;26;20277;-84
2024/04/13 03:09:22;;;;;;;8.87;6.87;;;8.90;99.90;;;;;;5484559;26;20286;-81
2024/04/13 03:11:48;;;;;;;8.13;5.97;;;8.80;99.90;;;;;;5498952;25;20331;-81
2024/04/13 03:14:17;;;;;;;12.13;6.20;;;8.80;99.90;;;;;;5485273;26;20250;-81
2024/04/13 03:16:43;;;;;;;8.80;5.77;;;8.70;99.90;;;;;;5484815;26;20234;-80
2024/04/13 03:19:11;;;;;;;8.97;8.07;;;8.70;99.90;;;;;;5486812;26;20285;-80
2024/04/13 03:21:38;;;;;;;6.13;5.10;;;8.60;99.90;;;;;;5486569;26;20223;-80
2024/04/13 03:24:08;;;;;;;6.83;5.00;;;8.60;99.90;;;;;;5484267;26;20764;-81
2024/04/13 03:26:37;;;;;;;7.60;6.00;;;8.60;99.90;;;;;;5478533;26;20281;-81
2024/04/13 03:29:05;;;;;;;7.77;6.00;;;8.60;99.90;;;;;;5482136;26;20329;-80
2024/04/13 03:31:32;;;;;;;9.10;8.07;;;8.60;99.90;;;;;;5484549;26;20246;-81
2024/04/13 03:34:02;;;;;;;6.67;5.63;;;8.70;99.90;;;;;;5486869;26;20242;-79
2024/04/13 03:36:28;;;;;;;6.83;6.13;;;8.70;99.90;;;;;;5503739;25;20264;-80
2024/04/13 03:38:57;;;;;;;6.43;5.83;;;8.70;99.90;;;;;;5490513;26;20227;-80
2024/04/13 03:41:25;;;;;;;7.03;5.80;;;8.70;99.90;;;;;;5490029;26;20281;-80
2024/04/13 03:43:57;;;;;;;7.93;6.97;;;8.70;99.90;;;;;;5489872;26;20878;-80
2024/04/13 03:46:23;;;;;;;9.70;6.10;;;8.60;99.90;;;;;;5487750;26;20265;-79
2024/04/13 03:48:52;;;;;;;7.03;5.73;;;8.60;99.90;;;;;;5487271;26;20242;-80
2024/04/13 03:51:18;;;;;;;8.87;6.80;;;8.50;99.90;;;;;;5489740;26;20233;-80
2024/04/13 03:53:46;;;;;;;8.83;6.60;;;8.50;99.90;;;;;;5488203;26;20238;-80
2024/04/13 03:56:13;;;;;;;9.73;6.63;;;8.60;99.90;;;;;;5486559;26;20277;-80
2024/04/13 03:58:41;;;;;;;9.20;6.53;;;8.50;99.90;;;;;;5484822;26;20247;-79
2024/04/13 04:01:10;;;;;;;7.67;6.20;;;8.50;99.90;;;;;;5485540;26;20284;-80
2024/04/13 04:03:39;;;;;;;9.67;7.17;;;8.60;99.90;;;;;;5478145;26;20238;-80
2024/04/13 04:06:05;;;;;;;6.90;6.10;;;8.60;99.90;;;;;;5489332;26;20590;-80
2024/04/13 04:08:33;;;;;;;7.90;6.43;;;8.50;99.90;;;;;;5487194;26;20596;-80
2024/04/13 04:10:59;;;;;;;8.43;5.70;;;8.40;99.90;;;;;;5487690;26;20559;-80
2024/04/13 04:13:28;;;;;;;9.03;6.40;;;8.40;99.90;;;;;;5489837;26;20320;-79
2024/04/13 04:15:54;;;;;;;12.03;10.80;;;8.30;99.90;;;;;;5489276;26;20234;-80
2024/04/13 04:18:25;;;;;;;9.33;7.67;;;8.30;99.90;;;;;;5489822;26;20243;-80
2024/04/13 04:20:51;;;;;;;9.80;8.00;;;8.30;99.90;;;;;;5491025;26;20641;-81
2024/04/13 04:23:21;;;;;;;9.60;8.03;;;8.20;99.90;;;;;;5488552;26;20273;-81
2024/04/13 04:25:46;;;;;;;14.10;9.80;;;8.20;99.90;;;;;;5476876;26;20286;-79
2024/04/13 04:28:15;;;;;;;11.17;9.97;;;8.10;99.90;;;;;;5485152;26;20230;-78
2024/04/13 04:30:44;;;;;;;10.97;10.07;;;8.10;99.90;;;;;;5489885;26;20231;-79
2024/04/13 04:33:13;;;;;;;9.77;7.30;;;8.10;99.90;;;;;;5489629;26;20226;-79
2024/04/13 04:35:41;;;;;;;11.27;10.27;;;8.10;99.90;;;;;;5487938;26;20616;-79
2024/04/13 04:38:12;;;;;;;10.13;9.23;;;8.20;99.90;;;;;;5487595;26;20242;-79
2024/04/13 04:40:38;;;;;;;9.93;8.93;;;8.20;99.90;;;;;;5480559;26;20235;-80
2024/04/13 04:43:07;;;;;;;12.57;11.37;;;8.20;99.90;;;;;;5490088;26;20276;-79
2024/04/13 04:45:34;;;;;;;10.17;9.07;;;8.20;99.90;;;;;;5489648;26;20230;-80
2024/04/13 04:48:02;;;;;;;10.67;7.90;;;8.30;99.90;;;;;;5487794;26;20238;-80
2024/04/13 04:50:28;;;;;;;11.67;8.30;;;8.30;99.90;;;;;;5475049;26;20301;-80
2024/04/13 04:53:01;;;;;;;9.10;7.73;;;8.40;99.90;;;;;;5489473;26;20230;-80
2024/04/13 04:55:28;;;;;;;11.93;9.50;;;8.50;99.90;;;;;;5477492;26;20233;-79
2024/04/13 04:57:56;;;;;;;10.70;9.70;;;8.50;99.90;;;;;;5473311;26;20725;-79
2024/04/13 05:00:22;;;;;;;10.97;9.87;;;8.60;99.90;;;;;;5488755;26;20285;-79
2024/04/13 05:02:50;;;;;;;10.47;9.47;;;8.60;99.90;;;;;;5467188;26;20295;-79
2024/04/13 05:05:16;;;;;;;10.30;9.37;;;8.70;99.90;;;;;;5479633;26;20242;-80
2024/04/13 05:07:45;;;;;;;8.93;8.17;;;8.80;99.90;;;;;;5490948;26;20234;-78
2024/04/13 05:10:15;;;;;;;9.57;8.77;;;8.80;99.90;;;;;;5496017;26;20336;-78
2024/04/13 05:12:43;;;;;;;9.50;8.50;;;8.80;99.90;;;;;;5489231;26;20280;-79
2024/04/13 05:15:09;;;;;;;9.57;8.67;;;8.80;99.90;;;;;;5472242;26;20285;-78
2024/04/13 05:17:37;;;;;;;9.30;8.30;;;8.80;99.90;;;;;;5494934;26;20238;-78
2024/04/13 05:20:07;;;;;;;8.93;8.13;;;8.80;99.90;;;;;;5466237;26;20720;-78
2024/04/13 05:22:33;;;;;;;9.50;8.03;;;8.90;99.90;;;;;;5473971;26;20305;-79
2024/04/13 05:25:02;;;;;;;8.27;7.57;;;8.90;99.90;;;;;;5486699;26;20242;-78
2024/04/13 05:27:30;;;;;;;8.50;7.80;;;9.00;99.90;;;;;;5479352;26;20243;-79
2024/04/13 05:30:03;;;;;;;8.67;7.87;;;9.10;99.90;;;;;;5489029;26;20280;-78
2024/04/13 05:32:29;;;;;;;9.63;8.80;;;9.10;99.90;;;;;;5488983;26;20226;-78
2024/04/13 05:34:57;;;;;;;7.77;6.97;;;9.10;99.90;;;;;;5500734;26;20260;-79
2024/04/13 05:37:23;;;;;;;7.37;6.60;;;9.20;99.90;;;;;;5468663;26;20246;-78
2024/04/13 05:39:52;;;;;;;10.97;9.60;;;9.20;99.90;;;;;;5488837;26;20274;-79
2024/04/13 05:42:17;;;;;;;9.07;8.17;;;9.30;99.90;;;;;;5487624;26;20323;-78
2024/04/13 05:44:49;;;;;;;10.63;9.70;;;9.30;99.90;;;;;;5490281;26;20640;-78
2024/04/13 05:47:14;;;;;;;10.67;9.57;;;9.40;99.90;;;;;;5519688;26;20262;-83
2024/04/13 05:49:43;;;;;;;10.47;9.27;;;9.50;99.90;;;;;;5479406;26;20278;-78
2024/04/13 05:52:09;;;;;;;10.33;9.43;;;9.70;99.90;;;;;;5480147;26;20622;-78
2024/04/13 05:54:37;;;;;;;9.93;8.90;;;10.00;99.90;;;;;;5489033;26;20237;-79
2024/04/13 05:57:03;;;;;;;9.10;8.30;;;10.10;99.90;;;;;;5487844;26;20232;-78
2024/04/13 05:59:32;;;;;;;8.20;7.40;;;10.30;99.90;;;;;;5486028;26;20270;-80
2024/04/13 06:02:00;;;;;;;7.20;5.70;;;10.50;99.90;;;;;;5488535;26;20354;-78
2024/04/13 06:04:29;;;;;;;8.10;5.80;;;10.60;99.90;;;;;;5488518;26;20688;-81
2024/04/13 06:06:55;;;;;;;10.23;5.87;;;10.80;99.90;;;;;;5488607;26;20736;-82
2024/04/13 06:09:23;;;;;;;6.20;5.47;;;11.00;99.90;;;;;;5486643;26;20279;-82
2024/04/13 06:11:49;;;;;;;6.30;5.67;;;11.20;99.90;;;;;;5486755;26;20277;-81
2024/04/13 06:14:18;;;;;;;6.70;6.00;;;11.30;99.90;;;;;;5484590;26;20252;-82
2024/04/13 06:16:44;;;;;;;5.37;4.70;;;11.50;99.90;;;;;;5472341;26;20280;-80
2024/04/13 06:19:16;;;;;;;5.30;4.80;;;11.80;99.90;;;;;;5487552;26;20280;-79
2024/04/13 06:21:42;;;;;;;8.30;4.93;;;12.00;99.90;;;;;;5516576;26;20234;-79
2024/04/13 06:24:10;;;;;;;5.63;4.83;;;12.20;99.90;;;;;;5516460;25;20239;-81
2024/04/13 06:26:36;;;;;;;7.43;6.33;;;12.30;99.90;;;;;;5484916;26;20230;-80
2024/04/13 06:29:04;;;;;;;6.37;5.13;;;12.50;99.90;;;;;;5509840;26;20247;-80
2024/04/13 06:31:30;;;;;;;6.87;6.17;;;12.50;99.90;;;;;;5485232;26;20583;-83
2024/04/13 06:33:59;;;;;;;6.93;6.30;;;12.60;99.90;;;;;;5470486;26;20284;-81
2024/04/13 06:36:27;;;;;;;7.73;7.00;;;12.60;99.90;;;;;;5485678;26;20289;-79
2024/04/13 06:38:56;;;;;;;6.03;5.10;;;12.80;99.90;;;;;;5495390;26;20238;-82
2024/04/13 06:41:21;;;;;;;5.77;4.60;;;12.80;99.90;;;;;;5487999;26;20235;-79
2024/04/13 06:43:50;;;;;;;6.37;5.77;;;12.90;99.90;;;;;;5489074;26;20276;-81
2024/04/13 06:46:16;;;;;;;6.37;5.87;;;13.00;99.90;;;;;;5487526;26;20638;-80
2024/04/13 06:48:44;;;;;;;6.93;6.33;;;13.10;99.90;;;;;;5489187;26;20618;-79
2024/04/13 06:51:11;;;;;;;7.30;6.50;;;13.20;99.90;;;;;;5489523;26;20234;-80
2024/04/13 06:53:42;;;;;;;7.97;5.40;;;13.30;99.90;;;;;;5489996;26;20230;-81
2024/04/13 06:56:09;;;;;;;7.83;7.10;;;13.30;99.90;;;;;;5488109;26;20268;-80
2024/04/13 06:58:37;;;;;;;6.97;6.20;;;13.40;99.90;;;;;;5488119;26;20680;-79
2024/04/13 07:01:03;;;;;;;7.47;6.77;;;13.50;99.90;;;;;;5488150;26;20265;-79
2024/04/13 07:03:32;;;;;;;9.13;7.20;;;13.60;99.90;;;;;;5484399;26;20798;-80
2024/04/13 07:05:59;;;;;;;8.00;7.20;;;13.60;99.90;;;;;;5486028;26;20234;-80
2024/04/13 07:08:28;;;;;;;7.90;7.00;;;13.80;99.90;;;;;;5486730;26;20746;-76
2024/04/13 07:10:57;;;;;;;8.00;6.60;;;14.00;99.90;;;;;;5489129;26;20234;-80
2024/04/13 07:13:25;;;;;;;7.03;6.43;;;14.20;99.90;;;;;;5487343;26;20329;-80
2024/04/13 07:15:51;;;;;;;6.90;6.20;;;14.40;99.90;;;;;;5491481;26;20260;-80
2024/04/13 07:18:20;;;;;;;7.13;6.43;;;14.80;99.90;;;;;;5491296;26;20583;-79
2024/04/13 07:20:45;;;;;;;6.80;5.50;;;15.20;99.90;;;;;;5492440;26;20234;-80
2024/04/13 07:23:16;;;;;;;5.73;4.60;;;15.50;99.90;;;;;;5492751;26;20264;-80
2024/04/13 07:25:42;;;;;;;7.77;6.27;;;16.00;99.90;;;;;;5505727;25;20772;-81
2024/04/13 07:28:14;;;;;;;7.57;4.37;;;16.50;99.90;;;;;;5475737;26;20266;-80
2024/04/13 07:30:40;;;;;;;6.13;5.53;;;17.00;99.90;;;;;;5516241;25;20266;-80
2024/04/13 07:33:08;;;;;;;5.40;4.20;;;17.40;99.90;;;;;;5468123;26;20281;-80
2024/04/13 07:35:34;;;;;;;6.07;3.97;;;17.70;99.90;;;;;;5486770;26;20287;-81
2024/04/13 07:38:02;;;;;;;5.30;4.50;;;18.10;99.90;;;;;;5490541;26;20245;-81
2024/04/13 07:40:28;;;;;;;6.57;4.53;;;18.50;99.90;;;;;;5489180;26;20320;-80
2024/04/13 07:42:57;;;;;;;6.13;4.77;;;18.70;99.90;;;;;;5466623;26;20247;-79
2024/04/13 07:45:25;;;;;;;9.37;4.40;;;19.10;99.90;;;;;;5474219;26;20246;-80
2024/04/13 07:47:54;;;;;;;6.97;4.90;;;19.30;99.90;;;;;;5488952;26;20731;-80
2024/04/13 07:50:20;;;;;;;5.23;4.40;;;19.50;99.90;;;;;;5488558;26;20269;-80
2024/04/13 07:52:48;;;;;;;6.00;4.20;;;19.80;99.90;;;;;;5493648;26;20613;-80
2024/04/13 07:55:14;;;;;;;5.57;3.97;;;20.00;99.90;;;;;;5490881;26;20367;-80
2024/04/13 07:57:43;;;;;;;5.63;5.00;;;20.20;99.90;;;;;;5472172;26;20721;-80
2024/04/13 08:00:10;;;;;;;7.57;4.57;;;20.40;99.90;;;;;;5490071;26;20222;-80
2024/04/13 08:02:43;;;;;;;9.97;4.60;;;20.50;99.90;;;;;;5479555;26;20269;-80
2024/04/13 08:05:09;;;;;;;6.47;4.27;;;20.80;99.90;;;;;;5461949;26;20247;-80
2024/04/13 08:07:38;;;;;;;7.10;4.83;;;21.00;99.90;;;;;;5486855;26;20234;-80
2024/04/13 08:10:05;;;;;;;7.30;4.60;;;21.20;99.90;;;;;;5471875;26;20243;-80
2024/04/13 08:12:33;;;;;;;6.67;4.70;;;21.20;99.90;;;;;;5473067;26;20305;-81
2024/04/13 08:14:59;;;;;;;6.33;4.63;;;21.30;99.90;;;;;;5490482;26;20250;-80
2024/04/13 08:17:29;;;;;;;6.37;4.70;;;21.50;99.90;;;;;;5460483;26;20266;-80
2024/04/13 08:19:57;;;;;;;6.73;4.27;;;21.70;99.90;;;;;;5494974;26;20265;-81
2024/04/13 08:22:25;;;;;;;4.67;4.10;;;21.80;99.90;;;;;;5459018;26;20240;-80
2024/04/13 08:24:53;;;;;;;5.80;3.97;;;21.90;99.90;;;;;;5493497;26;20280;-80
2024/04/13 08:27:22;;;;;;;5.33;4.50;;;22.10;99.90;;;;;;5493879;26;20230;-80
2024/04/13 08:29:48;;;;;;;4.97;3.70;;;22.10;99.90;;;;;;5477423;26;20397;-80
2024/04/13 08:32:17;;;;;;;7.13;4.20;;;22.30;99.90;;;;;;5492063;26;20286;-81
2024/04/13 08:34:42;;;;;;;8.47;4.20;;;22.50;99.90;;;;;;5493484;26;20667;-80
2024/04/13 08:37:13;;;;;;;8.03;4.90;;;22.80;99.90;;;;;;5480901;26;20239;-80
2024/04/13 08:39:40;;;;;;;8.80;5.47;;;22.80;99.90;;;;;;5493334;26;20227;-81
2024/04/13 08:42:11;;;;;;;7.70;4.80;;;22.80;99.90;;;;;;5491977;26;20282;-80
2024/04/13 08:44:38;;;;;;;10.30;5.00;;;22.70;99.90;;;;;;5501856;26;20781;-80
2024/04/13 08:47:08;;;;;;;7.53;5.93;;;22.90;99.90;;;;;;5490390;26;20234;-80
2024/04/13 08:49:36;;;;;;;6.83;6.10;;;23.10;99.90;;;;;;5493761;26;20230;-80
2024/04/13 08:52:08;;;;;;;5.80;5.20;;;23.50;99.90;;;;;;5493856;26;20586;-81
2024/04/13 08:54:37;;;;;;;7.73;5.90;;;23.70;99.90;;;;;;5491793;26;20717;-81
2024/04/13 08:57:08;;;;;;;6.10;5.50;;;23.90;99.90;;;;;;5475515;26;20352;-81
2024/04/13 08:59:35;;;;;;;6.57;5.80;;;24.30;99.90;;;;;;5488559;26;20230;-81
2024/04/13 09:02:04;;;;;;;7.30;6.57;;;24.30;99.90;;;;;;5493809;26;20281;-80
2024/04/13 09:04:32;;;;;;;7.87;6.27;;;24.50;99.90;;;;;;5492840;26;20294;-80
2024/04/13 09:07:01;;;;;;;7.10;6.30;;;24.40;99.90;;;;;;5490830;26;20286;-81
2024/04/13 09:09:27;;;;;;;7.20;6.50;;;24.40;99.90;;;;;;5493068;26;20273;-81
2024/04/13 09:11:58;;;;;;;8.20;6.90;;;24.70;99.90;;;;;;5485424;26;20247;-81
2024/04/13 09:14:24;;;;;;;5.83;5.33;;;24.90;99.90;;;;;;5486403;26;20290;-81
2024/04/13 09:16:53;;;;;;;7.03;6.00;;;25.00;99.90;;;;;;5491330;26;20238;-81
2024/04/13 09:19:19;;;;;;;7.73;5.17;;;25.00;99.90;;;;;;5491576;26;20234;-81
2024/04/13 09:21:48;;;;;;;6.33;4.97;;;24.80;99.90;;;;;;5493003;26;20631;-81
2024/04/13 09:24:14;;;;;;;5.27;4.50;;;24.80;99.90;;;;;;5493682;26;20234;-81
2024/04/13 09:26:44;;;;;;;7.23;5.10;;;25.10;99.90;;;;;;5491673;26;20302;-81
2024/04/13 09:29:23;;;;;;;6.27;5.57;;;25.30;99.90;;;;;;5480693;26;20240;-81
2024/04/13 09:31:52;;;;;;;7.73;6.07;;;25.60;99.90;;;;;;5469486;26;20264;-81
2024/04/13 09:34:18;;;;;;;6.90;6.30;;;25.40;99.90;;;;;;5492691;26;20235;-83
2024/04/13 09:36:46;;;;;;;8.53;6.70;;;25.20;99.90;;;;;;5486716;26;20250;-81
2024/04/13 09:39:19;;;;;;;7.63;6.40;;;25.50;99.90;;;;;;5488927;26;20226;-81
2024/04/13 09:41:47;;;;;;;8.30;6.30;;;25.30;99.90;;;;;;5492615;26;20285;-84
2024/04/13 09:44:26;;;;;;;7.50;6.70;;;25.50;99.90;;;;;;5506650;25;20624;-81
2024/04/13 09:46:55;;;;;;;8.53;6.33;;;25.20;99.90;;;;;;5497572;26;20226;-81
2024/04/13 09:49:20;;;;;;;9.03;6.63;;;25.10;99.90;;;;;;5495586;26;20281;-81
2024/04/13 09:51:50;;;;;;;8.17;6.73;;;24.90;99.90;;;;;;5493965;26;20741;-80
2024/04/13 09:54:16;;;;;;;7.20;6.50;;;25.00;99.90;;;;;;5497233;26;20303;-80
2024/04/13 09:56:47;;;;;;;6.97;6.27;;;25.40;99.90;;;;;;5501839;26;20250;-82
2024/04/13 09:59:17;;;;;;;6.53;5.93;;;25.50;99.50;;;;;;5490196;26;20250;-81
2024/04/13 10:01:48;;;;;;;8.87;6.40;;;25.40;99.90;;;;;;5496716;26;20273;-81
2024/04/13 10:04:14;;;;;;;6.87;6.20;;;25.10;99.90;;;;;;5486597;26;20281;-81
2024/04/13 10:06:43;;;;;;;8.10;6.37;;;25.00;99.90;;;;;;5496225;26;20297;-82
2024/04/13 10:09:14;;;;;;;7.27;6.10;;;24.80;99.90;;;;;;5495948;26;20230;-80
2024/04/13 10:11:45;;;;;;;7.60;6.93;;;24.80;99.90;;;;;;5476493;26;20287;-79
2024/04/13 10:14:16;;;;;;;7.40;6.60;;;24.60;99.90;;;;;;5494935;26;20261;-81
2024/04/13 10:16:46;;;;;;;6.40;5.80;;;24.70;99.90;;;;;;5490929;26;20234;-80
2024/04/13 10:19:17;;;;;;;7.07;5.97;;;24.80;99.70;;;;;;5493918;26;20238;-80
2024/04/13 10:21:43;;;;;;;5.70;5.30;;;24.80;99.90;;;;;;5493280;26;20231;-81
2024/04/13 10:24:17;;;;;;;6.50;5.90;;;24.90;99.80;;;;;;5491730;26;20242;-81
2024/04/13 10:26:43;;;;;;;6.50;6.00;;;24.80;99.00;;;;;;5492879;26;20226;-81
2024/04/13 10:29:11;;;;;;;6.57;5.87;;;24.50;99.80;;;;;;5493362;26;20226;-80
2024/04/13 10:31:39;;;;;;;7.10;6.10;;;24.60;99.10;;;;;;5493953;26;20230;-80
2024/04/13 10:34:14;;;;;;;5.73;5.23;;;24.30;98.70;;;;;;5491553;26;20304;-80
2024/04/13 10:36:41;;;;;;;6.13;5.50;;;24.40;99.60;;;;;;5508013;26;20290;-82
2024/04/13 10:39:10;;;;;;;5.70;5.30;;;24.50;99.90;;;;;;5493250;26;20227;-80
2024/04/13 10:41:37;;;;;;;4.03;2.80;;;24.80;99.70;;;;;;5492543;26;20276;-82
2024/04/13 10:44:09;;;;;;;5.23;3.57;;;24.80;99.80;;;;;;5492968;26;20242;-82
2024/04/13 10:46:35;;;;;;;4.00;3.53;;;24.90;99.40;;;;;;5491613;26;20230;-80
2024/04/13 10:49:04;;;;;;;3.20;2.23;;;24.90;99.20;;;;;;5492235;26;20273;-81
2024/04/13 10:51:32;;;;;;;3.10;2.30;;;25.00;99.10;;;;;;5486137;26;20234;-80
2024/04/13 10:54:01;;;;;;;4.83;4.43;;;25.10;98.90;;;;;;5505614;26;20254;-80
2024/04/13 10:56:27;;;;;;;2.53;2.10;;;24.90;97.90;;;;;;5492626;26;20412;-80
2024/04/13 10:58:58;;;;;;;4.67;3.67;;;24.80;99.40;;;;;;5494961;26;20231;-80
2024/04/13 11:01:23;;;;;;;5.90;5.47;;;24.80;99.10;;;;;;5495034;26;20741;-81
2024/04/13 11:03:52;;;;;;;5.60;5.20;;;24.90;98.90;;;;;;5494061;26;20344;-81
2024/04/13 11:06:19;;;;;;;5.83;5.30;;;24.80;99.20;;;;;;5537614;25;20230;-81
2024/04/13 11:08:50;;;;;;;5.60;5.20;;;24.90;99.60;;;;;;5490646;26;20779;-80
2024/04/13 11:11:18;;;;;;;5.30;4.90;;;24.90;99.50;;;;;;5484700;26;20235;-81
2024/04/13 11:13:47;;;;;;;4.07;2.10;;;24.90;99.30;;;;;;5491621;26;20276;-78
2024/04/13 11:16:13;;;;;;;4.07;2.40;;;24.80;99.30;;;;;;5472920;26;20290;-78
2024/04/13 11:18:42;;;;;;;3.70;3.40;;;24.80;99.20;;;;;;5517110;25;20254;-78
2024/04/13 11:21:10;;;;;;;6.37;5.77;;;24.70;99.10;;;;;;5490205;26;20955;-78
2024/04/13 11:23:40;;;;;;;4.53;2.30;;;24.50;99.10;;;;;;5491147;26;20235;-78
2024/04/13 11:26:08;;;;;;;4.30;3.90;;;24.60;99.60;;;;;;5489802;26;20226;-78
2024/04/13 11:28:37;;;;;;;7.27;6.63;;;24.60;99.70;;;;;;5487377;26;20234;-77
2024/04/13 11:31:03;;;;;;;3.93;2.53;;;24.70;99.40;;;;;;5493438;26;20330;-77
2024/04/13 11:33:32;;;;;;;3.03;2.60;;;24.60;99.60;;;;;;5488745;26;20338;-84
2024/04/13 11:35:59;;;;;;;2.73;2.40;;;24.60;99.60;;;;;;5488989;26;20601;-84
2024/04/13 11:38:29;;;;;;;3.20;2.23;;;24.60;99.40;;;;;;5489437;26;20234;-83
2024/04/13 11:40:55;;;;;;;4.13;2.40;;;24.70;99.60;;;;;;5502174;26;20227;-83
2024/04/13 11:43:26;;;;;;;3.20;2.53;;;24.80;99.70;;;;;;5487957;26;20281;-83
2024/04/13 11:45:52;;;;;;;3.77;3.47;;;24.80;99.40;;;;;;5472105;26;20293;-83
2024/04/13 11:48:21;;;;;;;3.97;3.57;;;24.60;99.40;;;;;;5486445;26;20234;-82
2024/04/13 11:50:47;;;;;;;4.53;4.13;;;24.60;99.20;;;;;;5499087;25;20271;-83
2024/04/13 11:53:16;;;;;;;2.50;2.13;;;24.60;99.50;;;;;;5489694;26;20290;-84
2024/04/13 11:55:42;;;;;;;5.13;4.73;;;24.70;99.60;;;;;;5488906;26;20307;-81
2024/04/13 11:58:10;;;;;;;3.73;3.37;;;24.90;99.80;;;;;;5518130;25;20242;-82
2024/04/13 12:00:39;;;;;;;5.30;4.80;;;25.00;99.60;;;;;;5491598;26;20238;-81
2024/04/13 12:03:07;;;;;;;6.03;5.43;;;25.00;99.20;;;;;;5491028;26;21026;-82
2024/04/13 12:05:33;;;;;;;6.13;5.67;;;25.10;99.50;;;;;;5492458;26;20234;-81
2024/04/13 12:08:02;;;;;;;5.40;4.90;;;25.00;99.70;;;;;;5495008;26;20286;-81
2024/04/13 12:10:29;;;;;;;5.60;5.10;;;25.00;99.30;;;;;;5478110;26;20239;-80
2024/04/13 12:12:58;;;;;;;2.93;2.73;;;24.90;98.40;;;;;;5485307;26;20238;-82
2024/04/13 12:15:24;;;;;;;3.40;2.13;;;25.00;99.10;;;;;;5487753;26;20238;-81
2024/04/13 12:17:55;;;;;;;2.63;2.17;;;24.90;97.70;;;;;;5489747;26;20231;-81
2024/04/13 12:20:20;;;;;;;2.70;2.07;;;24.90;98.90;;;;;;5482116;26;20282;-82
2024/04/13 12:22:49;;;;;;;2.90;2.70;;;25.00;99.00;;;;;;5488187;26;20235;-81
2024/04/13 12:25:15;;;;;;;2.20;2.10;;;25.10;98.70;;;;;;5491272;26;20226;-81
2024/04/13 12:27:44;;;;;;;3.30;2.43;;;25.20;98.40;;;;;;5489644;26;20345;-81
2024/04/13 12:30:10;;;;;;;3.20;2.30;;;25.20;98.00;;;;;;5487284;26;20230;-81
2024/04/13 12:32:38;;;;;;;3.70;3.27;;;25.20;97.90;;;;;;5490457;26;20645;-81
2024/04/13 12:35:10;;;;;;;3.57;2.30;;;25.10;98.50;;;;;;5487680;26;20273;-82
2024/04/13 12:37:38;;;;;;;4.50;4.20;;;25.00;98.20;;;;;;5505840;26;20597;-82
2024/04/13 12:40:05;;;;;;;2.70;2.53;;;25.00;98.90;;;;;;5489898;26;20246;-81
2024/04/13 12:42:33;;;;;;;2.57;2.10;;;25.10;99.00;;;;;;5486022;26;20286;-81
2024/04/13 12:44:59;;;;;;;3.50;2.77;;;25.10;99.00;;;;;;5493521;26;20239;-81
2024/04/13 12:47:28;;;;;;;4.50;4.13;;;25.10;98.40;;;;;;5498002;26;20242;-81
2024/04/13 12:49:54;;;;;;;3.40;3.10;;;25.10;98.30;;;;;;5495112;26;20235;-83
2024/04/13 12:52:25;;;;;;;4.97;4.57;;;25.10;98.50;;;;;;5491503;26;20234;-83